aviador You're here:

KLUK Decoded Metar

CINCINNATI in OH, USA
Report Time2017-06-29 06:53:00
UTC Time2017-06-29 07:16:04
Flight Rules vfr VFR
WindCalm
Visibility9999 m
Phenomena:N/A
Clouds:N/A
Expected CloudBase > 800 ft AGL from Temp-Dew spread
CeilingNone
Temp17°C (ISA +3)
Dew Point15°C (88% RH)
QNH1017 hPa
Density Alt958 ft
Elevation509 ft
Report Wrong Elevation
Raw Report
METAR KLUK 290653Z AUTO 00000KT 10SM CLR 17/15 A3003 RMK AO2 SLP164
T01720150=

Extra information for KLUK:More info

Metar Taf Metar & Taf Last 4 Metars F.Rules Stats Wind Profile Meteogram Temp Stats Airport Information Weather charts Add Link Nearby VenuesMetar ALERT Operation Metar Decoded Social comments

AIRNAV info for KLUK